sensor_id;sensor_type;location;lat;lon;timestamp;temperature;humidity
65179;DHT22;51849;47.476;8.084;2022-09-20T00:03:46;9.10;75.50
65179;DHT22;51849;47.476;8.084;2022-09-20T00:06:15;8.80;75.80
65179;DHT22;51849;47.476;8.084;2022-09-20T00:08:43;8.60;76.50
65179;DHT22;51849;47.476;8.084;2022-09-20T00:11:10;8.60;76.70
65179;DHT22;51849;47.476;8.084;2022-09-20T00:13:40;8.50;76.50
65179;DHT22;51849;47.476;8.084;2022-09-20T00:16:08;8.50;76.40
65179;DHT22;51849;47.476;8.084;2022-09-20T00:18:38;8.60;76.10
65179;DHT22;51849;47.476;8.084;2022-09-20T00:21:05;8.50;75.70
65179;DHT22;51849;47.476;8.084;2022-09-20T00:23:31;8.40;75.60
65179;DHT22;51849;47.476;8.084;2022-09-20T00:26:01;8.40;75.80
65179;DHT22;51849;47.476;8.084;2022-09-20T00:28:28;8.40;75.70
65179;DHT22;51849;47.476;8.084;2022-09-20T00:30:56;8.40;75.60
65179;DHT22;51849;47.476;8.084;2022-09-20T00:33:22;8.40;75.40
65179;DHT22;51849;47.476;8.084;2022-09-20T00:35:50;8.40;75.20
65179;DHT22;51849;47.476;8.084;2022-09-20T00:38:16;8.40;75.00
65179;DHT22;51849;47.476;8.084;2022-09-20T00:40:42;8.40;75.00
65179;DHT22;51849;47.476;8.084;2022-09-20T00:43:16;8.30;74.90
65179;DHT22;51849;47.476;8.084;2022-09-20T00:45:45;8.30;75.20
65179;DHT22;51849;47.476;8.084;2022-09-20T00:48:15;8.30;75.20
65179;DHT22;51849;47.476;8.084;2022-09-20T00:50:57;8.20;75.20
65179;DHT22;51849;47.476;8.084;2022-09-20T00:53:33;8.10;74.90
65179;DHT22;51849;47.476;8.084;2022-09-20T00:58:37;7.90;75.30
65179;DHT22;51849;47.476;8.084;2022-09-20T01:01:06;7.80;75.70
65179;DHT22;51849;47.476;8.084;2022-09-20T01:03:32;7.70;75.80
65179;DHT22;51849;47.476;8.084;2022-09-20T01:06:01;7.70;75.90
65179;DHT22;51849;47.476;8.084;2022-09-20T01:08:31;7.60;76.10
65179;DHT22;51849;47.476;8.084;2022-09-20T01:11:01;7.60;76.20
65179;DHT22;51849;47.476;8.084;2022-09-20T01:13:26;7.60;76.10
65179;DHT22;51849;47.476;8.084;2022-09-20T01:15:52;7.60;75.90
65179;DHT22;51849;47.476;8.084;2022-09-20T01:18:19;7.60;75.80
65179;DHT22;51849;47.476;8.084;2022-09-20T01:20:47;7.50;76.00
65179;DHT22;51849;47.476;8.084;2022-09-20T01:28:44;7.40;76.20
65179;DHT22;51849;47.476;8.084;2022-09-20T01:31:18;7.30;76.30
65179;DHT22;51849;47.476;8.084;2022-09-20T01:33:52;7.30;76.60
65179;DHT22;51849;47.476;8.084;2022-09-20T01:36:25;7.30;76.40
65179;DHT22;51849;47.476;8.084;2022-09-20T01:44:12;7.30;76.00
65179;DHT22;51849;47.476;8.084;2022-09-20T01:46:53;7.30;76.10
65179;DHT22;51849;47.476;8.084;2022-09-20T01:49:30;7.30;76.10
65179;DHT22;51849;47.476;8.084;2022-09-20T01:52:16;7.20;76.30
65179;DHT22;51849;47.476;8.084;2022-09-20T02:13:55;6.90;76.60
65179;DHT22;51849;47.476;8.084;2022-09-20T02:39:09;6.70;77.10
65179;DHT22;51849;47.476;8.084;2022-09-20T02:41:54;6.60;77.30
65179;DHT22;51849;47.476;8.084;2022-09-20T02:55:47;6.40;78.30
65179;DHT22;51849;47.476;8.084;2022-09-20T03:01:01;6.30;78.90
65179;DHT22;51849;47.476;8.084;2022-09-20T03:09:10;6.30;78.90
65179;DHT22;51849;47.476;8.084;2022-09-20T03:17:31;6.40;78.30
65179;DHT22;51849;47.476;8.084;2022-09-20T03:41:30;6.20;77.60
65179;DHT22;51849;47.476;8.084;2022-09-20T03:47:14;6.20;78.30
65179;DHT22;51849;47.476;8.084;2022-09-20T03:56:18;6.30;78.10
65179;DHT22;51849;47.476;8.084;2022-09-20T04:03:52;5.90;78.20
65179;DHT22;51849;47.476;8.084;2022-09-20T04:12:38;5.80;78.40
65179;DHT22;51849;47.476;8.084;2022-09-20T04:22:44;5.80;78.20
65179;DHT22;51849;47.476;8.084;2022-09-20T04:25:37;5.80;78.30
65179;DHT22;51849;47.476;8.084;2022-09-20T04:28:18;5.80;79.10
65179;DHT22;51849;47.476;8.084;2022-09-20T04:30:50;5.90;79.90
65179;DHT22;51849;47.476;8.084;2022-09-20T04:33:24;5.90;77.70
65179;DHT22;51849;47.476;8.084;2022-09-20T04:36:13;5.90;77.00
65179;DHT22;51849;47.476;8.084;2022-09-20T04:48:00;5.50;78.20
65179;DHT22;51849;47.476;8.084;2022-09-20T05:14:22;5.30;79.80
65179;DHT22;51849;47.476;8.084;2022-09-20T05:16:58;5.30;80.10
65179;DHT22;51849;47.476;8.084;2022-09-20T05:34:09;5.50;78.20
65179;DHT22;51849;47.476;8.084;2022-09-20T05:50:32;5.40;78.80
65179;DHT22;51849;47.476;8.084;2022-09-20T05:56:04;5.40;78.20
65179;DHT22;51849;47.476;8.084;2022-09-20T06:01:37;5.50;78.00
65179;DHT22;51849;47.476;8.084;2022-09-20T06:15:19;5.60;77.90
65179;DHT22;51849;47.476;8.084;2022-09-20T06:20:42;5.70;78.10
65179;DHT22;51849;47.476;8.084;2022-09-20T06:23:20;5.80;78.00
65179;DHT22;51849;47.476;8.084;2022-09-20T06:25:47;6.00;77.70
65179;DHT22;51849;47.476;8.084;2022-09-20T06:28:21;6.10;77.30
65179;DHT22;51849;47.476;8.084;2022-09-20T06:30:54;6.20;77.00
65179;DHT22;51849;47.476;8.084;2022-09-20T06:33:22;6.40;77.20
65179;DHT22;51849;47.476;8.084;2022-09-20T06:39:00;6.60;77.20
65179;DHT22;51849;47.476;8.084;2022-09-20T06:41:54;6.70;77.40
65179;DHT22;51849;47.476;8.084;2022-09-20T06:44:22;6.90;77.40
65179;DHT22;51849;47.476;8.084;2022-09-20T06:46:47;7.00;77.20
65179;DHT22;51849;47.476;8.084;2022-09-20T06:49:13;7.10;77.20
65179;DHT22;51849;47.476;8.084;2022-09-20T06:51:39;7.20;77.40
65179;DHT22;51849;47.476;8.084;2022-09-20T06:54:06;7.20;77.70
65179;DHT22;51849;47.476;8.084;2022-09-20T06:56:41;7.40;77.90
65179;DHT22;51849;47.476;8.084;2022-09-20T06:59:08;7.50;77.90
65179;DHT22;51849;47.476;8.084;2022-09-20T07:01:37;7.50;78.70
65179;DHT22;51849;47.476;8.084;2022-09-20T07:04:03;7.60;78.90
65179;DHT22;51849;47.476;8.084;2022-09-20T07:06:30;7.70;79.10
65179;DHT22;51849;47.476;8.084;2022-09-20T07:08:59;7.80;79.10
65179;DHT22;51849;47.476;8.084;2022-09-20T07:11:25;7.90;78.90
65179;DHT22;51849;47.476;8.084;2022-09-20T07:13:51;8.10;78.60
65179;DHT22;51849;47.476;8.084;2022-09-20T07:16:19;8.20;78.30
65179;DHT22;51849;47.476;8.084;2022-09-20T07:18:45;8.30;78.10
65179;DHT22;51849;47.476;8.084;2022-09-20T07:21:17;8.40;77.60
65179;DHT22;51849;47.476;8.084;2022-09-20T07:23:44;8.50;77.30
65179;DHT22;51849;47.476;8.084;2022-09-20T07:26:22;8.60;76.40
65179;DHT22;51849;47.476;8.084;2022-09-20T07:28:51;8.80;75.90
65179;DHT22;51849;47.476;8.084;2022-09-20T07:31:17;9.00;75.20
65179;DHT22;51849;47.476;8.084;2022-09-20T07:33:44;9.10;74.90
65179;DHT22;51849;47.476;8.084;2022-09-20T07:36:11;9.30;75.00
65179;DHT22;51849;47.476;8.084;2022-09-20T07:38:37;9.40;74.90
65179;DHT22;51849;47.476;8.084;2022-09-20T07:41:04;9.40;74.90
65179;DHT22;51849;47.476;8.084;2022-09-20T07:43:32;9.60;74.40
65179;DHT22;51849;47.476;8.084;2022-09-20T07:45:58;9.70;74.20
65179;DHT22;51849;47.476;8.084;2022-09-20T07:48:31;9.80;73.90
65179;DHT22;51849;47.476;8.084;2022-09-20T07:51:03;9.90;73.30
65179;DHT22;51849;47.476;8.084;2022-09-20T07:53:30;10.00;72.40
65179;DHT22;51849;47.476;8.084;2022-09-20T07:58:22;10.30;71.10
65179;DHT22;51849;47.476;8.084;2022-09-20T08:00:53;10.40;70.20
65179;DHT22;51849;47.476;8.084;2022-09-20T08:03:20;10.50;70.10
65179;DHT22;51849;47.476;8.084;2022-09-20T08:05:47;10.60;70.00
65179;DHT22;51849;47.476;8.084;2022-09-20T08:08:15;10.70;70.00
65179;DHT22;51849;47.476;8.084;2022-09-20T08:10:44;10.80;69.60
65179;DHT22;51849;47.476;8.084;2022-09-20T08:13:11;10.80;69.30
65179;DHT22;51849;47.476;8.084;2022-09-20T08:15:38;10.90;69.20
65179;DHT22;51849;47.476;8.084;2022-09-20T08:18:05;11.00;68.60
65179;DHT22;51849;47.476;8.084;2022-09-20T08:20:35;11.10;68.30
65179;DHT22;51849;47.476;8.084;2022-09-20T08:23:04;11.30;68.50
65179;DHT22;51849;47.476;8.084;2022-09-20T08:25:31;11.40;68.60
65179;DHT22;51849;47.476;8.084;2022-09-20T08:27:57;11.50;67.70
65179;DHT22;51849;47.476;8.084;2022-09-20T08:30:23;11.60;67.00
65179;DHT22;51849;47.476;8.084;2022-09-20T08:32:48;11.70;66.30
65179;DHT22;51849;47.476;8.084;2022-09-20T08:35:17;11.80;65.60
65179;DHT22;51849;47.476;8.084;2022-09-20T08:37:42;12.00;65.30
65179;DHT22;51849;47.476;8.084;2022-09-20T08:40:11;12.00;65.10
65179;DHT22;51849;47.476;8.084;2022-09-20T08:42:40;12.10;65.00
65179;DHT22;51849;47.476;8.084;2022-09-20T08:45:15;12.10;64.20
65179;DHT22;51849;47.476;8.084;2022-09-20T08:47:53;12.20;63.40
65179;DHT22;51849;47.476;8.084;2022-09-20T08:50:21;12.40;63.70
65179;DHT22;51849;47.476;8.084;2022-09-20T08:52:48;12.60;63.30
65179;DHT22;51849;47.476;8.084;2022-09-20T08:55:18;12.60;63.60
65179;DHT22;51849;47.476;8.084;2022-09-20T08:57:46;12.60;59.60
65179;DHT22;51849;47.476;8.084;2022-09-20T09:00:16;12.60;59.50
65179;DHT22;51849;47.476;8.084;2022-09-20T09:02:43;12.80;59.80
65179;DHT22;51849;47.476;8.084;2022-09-20T09:05:29;12.80;60.20
65179;DHT22;51849;47.476;8.084;2022-09-20T09:08:10;12.90;61.20
65179;DHT22;51849;47.476;8.084;2022-09-20T09:10:41;13.10;60.90
65179;DHT22;51849;47.476;8.084;2022-09-20T09:13:14;13.40;60.80
65179;DHT22;51849;47.476;8.084;2022-09-20T09:15:48;13.50;60.60
65179;DHT22;51849;47.476;8.084;2022-09-20T09:18:18;13.60;59.00
65179;DHT22;51849;47.476;8.084;2022-09-20T09:20:44;13.50;58.40
65179;DHT22;51849;47.476;8.084;2022-09-20T09:23:21;13.60;58.50
65179;DHT22;51849;47.476;8.084;2022-09-20T09:25:50;13.70;57.60
65179;DHT22;51849;47.476;8.084;2022-09-20T09:28:23;13.70;56.50
65179;DHT22;51849;47.476;8.084;2022-09-20T09:30:50;13.90;56.80
65179;DHT22;51849;47.476;8.084;2022-09-20T09:33:26;14.00;56.00
65179;DHT22;51849;47.476;8.084;2022-09-20T09:35:54;14.10;55.90
65179;DHT22;51849;47.476;8.084;2022-09-20T09:38:24;14.10;56.20
65179;DHT22;51849;47.476;8.084;2022-09-20T09:40:56;14.30;54.80
65179;DHT22;51849;47.476;8.084;2022-09-20T09:43:29;14.30;53.10
65179;DHT22;51849;47.476;8.084;2022-09-20T09:46:19;14.30;54.10
65179;DHT22;51849;47.476;8.084;2022-09-20T09:51:36;14.50;53.70
65179;DHT22;51849;47.476;8.084;2022-09-20T09:54:03;14.50;53.30
65179;DHT22;51849;47.476;8.084;2022-09-20T09:56:40;14.70;53.70
65179;DHT22;51849;47.476;8.084;2022-09-20T09:59:29;14.70;52.30
65179;DHT22;51849;47.476;8.084;2022-09-20T10:04:34;14.90;52.40
65179;DHT22;51849;47.476;8.084;2022-09-20T10:10:08;15.10;51.40
65179;DHT22;51849;47.476;8.084;2022-09-20T10:24:06;15.60;49.10
65179;DHT22;51849;47.476;8.084;2022-09-20T10:32:20;16.20;46.50
65179;DHT22;51849;47.476;8.084;2022-09-20T10:49:26;15.10;50.70
65179;DHT22;51849;47.476;8.084;2022-09-20T10:56:48;14.60;51.00
65179;DHT22;51849;47.476;8.084;2022-09-20T11:08:14;14.90;50.00
65179;DHT22;51849;47.476;8.084;2022-09-20T11:10:53;15.30;48.30
65179;DHT22;51849;47.476;8.084;2022-09-20T11:16:04;15.70;45.30
65179;DHT22;51849;47.476;8.084;2022-09-20T11:18:48;15.80;45.10
65179;DHT22;51849;47.476;8.084;2022-09-20T11:21:24;16.00;45.30
65179;DHT22;51849;47.476;8.084;2022-09-20T11:24:06;16.20;45.00
65179;DHT22;51849;47.476;8.084;2022-09-20T11:26:47;16.20;45.00
65179;DHT22;51849;47.476;8.084;2022-09-20T11:29:20;16.50;43.30
65179;DHT22;51849;47.476;8.084;2022-09-20T11:31:52;16.70;43.50
65179;DHT22;51849;47.476;8.084;2022-09-20T11:34:32;16.90;43.70
65179;DHT22;51849;47.476;8.084;2022-09-20T11:37:04;16.80;44.80
65179;DHT22;51849;47.476;8.084;2022-09-20T11:42:03;17.00;43.40
65179;DHT22;51849;47.476;8.084;2022-09-20T11:44:31;16.90;42.10
65179;DHT22;51849;47.476;8.084;2022-09-20T11:47:02;17.00;42.00
65179;DHT22;51849;47.476;8.084;2022-09-20T11:52:24;16.70;43.90
65179;DHT22;51849;47.476;8.084;2022-09-20T11:58:05;16.50;45.00
65179;DHT22;51849;47.476;8.084;2022-09-20T12:00:34;16.50;45.30
65179;DHT22;51849;47.476;8.084;2022-09-20T12:03:04;16.10;45.30
65179;DHT22;51849;47.476;8.084;2022-09-20T12:06:00;16.00;46.10
65179;DHT22;51849;47.476;8.084;2022-09-20T12:08:31;16.00;47.30
65179;DHT22;51849;47.476;8.084;2022-09-20T12:11:09;15.90;47.50
65179;DHT22;51849;47.476;8.084;2022-09-20T12:13:38;15.70;47.30
65179;DHT22;51849;47.476;8.084;2022-09-20T12:16:07;15.70;47.20
65179;DHT22;51849;47.476;8.084;2022-09-20T12:21:04;15.80;45.70
65179;DHT22;51849;47.476;8.084;2022-09-20T12:26:08;16.20;44.90
65179;DHT22;51849;47.476;8.084;2022-09-20T12:28:41;16.50;43.00
65179;DHT22;51849;47.476;8.084;2022-09-20T12:37:15;17.00;42.40
65179;DHT22;51849;47.476;8.084;2022-09-20T12:39:34;17.20;42.20
65179;DHT22;51849;47.476;8.084;2022-09-20T12:44:40;16.90;42.50
65179;DHT22;51849;47.476;8.084;2022-09-20T13:08:44;16.80;42.60
65179;DHT22;51849;47.476;8.084;2022-09-20T13:11:15;16.70;43.60
65179;DHT22;51849;47.476;8.084;2022-09-20T13:19:05;16.60;44.20
65179;DHT22;51849;47.476;8.084;2022-09-20T13:21:37;16.70;43.70
65179;DHT22;51849;47.476;8.084;2022-09-20T13:24:07;16.90;43.00
65179;DHT22;51849;47.476;8.084;2022-09-20T13:26:40;17.00;42.70
65179;DHT22;51849;47.476;8.084;2022-09-20T13:29:21;16.90;42.90
65179;DHT22;51849;47.476;8.084;2022-09-20T13:31:53;16.90;41.30
65179;DHT22;51849;47.476;8.084;2022-09-20T13:34:21;17.00;40.40
65179;DHT22;51849;47.476;8.084;2022-09-20T13:36:50;17.20;39.30
65179;DHT22;51849;47.476;8.084;2022-09-20T13:39:21;17.30;40.00
65179;DHT22;51849;47.476;8.084;2022-09-20T13:41:50;17.50;40.10
65179;DHT22;51849;47.476;8.084;2022-09-20T13:44:16;17.50;39.60
65179;DHT22;51849;47.476;8.084;2022-09-20T13:46:43;17.60;40.50
65179;DHT22;51849;47.476;8.084;2022-09-20T13:51:35;17.40;40.60
65179;DHT22;51849;47.476;8.084;2022-09-20T13:56:50;17.20;43.20
65179;DHT22;51849;47.476;8.084;2022-09-20T13:59:17;16.90;44.30
65179;DHT22;51849;47.476;8.084;2022-09-20T14:01:50;16.90;45.10
65179;DHT22;51849;47.476;8.084;2022-09-20T14:04:22;17.00;44.80
65179;DHT22;51849;47.476;8.084;2022-09-20T14:06:51;17.10;44.50
65179;DHT22;51849;47.476;8.084;2022-09-20T14:09:28;17.30;44.80
65179;DHT22;51849;47.476;8.084;2022-09-20T14:12:02;17.50;45.00
65179;DHT22;51849;47.476;8.084;2022-09-20T14:14:29;17.50;44.40
65179;DHT22;51849;47.476;8.084;2022-09-20T14:16:57;17.50;44.80
65179;DHT22;51849;47.476;8.084;2022-09-20T14:19:28;17.30;44.90
65179;DHT22;51849;47.476;8.084;2022-09-20T14:22:03;17.30;44.50
65179;DHT22;51849;47.476;8.084;2022-09-20T14:24:31;17.10;44.50
65179;DHT22;51849;47.476;8.084;2022-09-20T14:29:41;16.70;46.10
65179;DHT22;51849;47.476;8.084;2022-09-20T14:34:49;16.80;46.10
65179;DHT22;51849;47.476;8.084;2022-09-20T14:40:18;16.80;45.50
65179;DHT22;51849;47.476;8.084;2022-09-20T14:42:47;16.80;44.60
65179;DHT22;51849;47.476;8.084;2022-09-20T14:45:29;16.70;44.60
65179;DHT22;51849;47.476;8.084;2022-09-20T14:50:39;16.60;45.70
65179;DHT22;51849;47.476;8.084;2022-09-20T14:55:33;16.50;46.30
65179;DHT22;51849;47.476;8.084;2022-09-20T14:58:08;16.50;46.30
65179;DHT22;51849;47.476;8.084;2022-09-20T15:03:51;16.30;46.80
65179;DHT22;51849;47.476;8.084;2022-09-20T15:06:16;16.20;46.70
65179;DHT22;51849;47.476;8.084;2022-09-20T15:08:43;16.20;47.20
65179;DHT22;51849;47.476;8.084;2022-09-20T15:11:12;16.20;46.50
65179;DHT22;51849;47.476;8.084;2022-09-20T15:13:41;16.10;46.90
65179;DHT22;51849;47.476;8.084;2022-09-20T15:16:07;16.10;47.50
65179;DHT22;51849;47.476;8.084;2022-09-20T15:18:40;16.00;48.10
65179;DHT22;51849;47.476;8.084;2022-09-20T15:21:07;16.00;49.00
65179;DHT22;51849;47.476;8.084;2022-09-20T15:23:35;16.00;48.80
65179;DHT22;51849;47.476;8.084;2022-09-20T15:26:03;16.10;48.50
65179;DHT22;51849;47.476;8.084;2022-09-20T15:28:30;16.00;49.00
65179;DHT22;51849;47.476;8.084;2022-09-20T15:30:57;15.90;48.80
65179;DHT22;51849;47.476;8.084;2022-09-20T15:33:23;15.90;48.60
65179;DHT22;51849;47.476;8.084;2022-09-20T15:35:52;15.90;48.20
65179;DHT22;51849;47.476;8.084;2022-09-20T15:38:18;15.70;48.70
65179;DHT22;51849;47.476;8.084;2022-09-20T15:40:44;15.70;48.50
65179;DHT22;51849;47.476;8.084;2022-09-20T15:43:16;15.70;48.40
65179;DHT22;51849;47.476;8.084;2022-09-20T15:48:42;15.50;48.10
65179;DHT22;51849;47.476;8.084;2022-09-20T15:51:10;15.50;49.40
65179;DHT22;51849;47.476;8.084;2022-09-20T15:53:38;15.50;49.20
65179;DHT22;51849;47.476;8.084;2022-09-20T15:56:20;15.50;48.80
65179;DHT22;51849;47.476;8.084;2022-09-20T15:58:52;15.30;48.50
65179;DHT22;51849;47.476;8.084;2022-09-20T16:01:29;15.40;48.80
65179;DHT22;51849;47.476;8.084;2022-09-20T16:04:05;15.30;48.80
65179;DHT22;51849;47.476;8.084;2022-09-20T16:06:32;15.40;49.10
65179;DHT22;51849;47.476;8.084;2022-09-20T16:08:58;15.40;49.50
65179;DHT22;51849;47.476;8.084;2022-09-20T16:11:26;15.40;49.40
65179;DHT22;51849;47.476;8.084;2022-09-20T16:13:53;15.40;49.00
65179;DHT22;51849;47.476;8.084;2022-09-20T16:16:24;15.40;49.40
65179;DHT22;51849;47.476;8.084;2022-09-20T16:18:50;15.40;49.10
65179;DHT22;51849;47.476;8.084;2022-09-20T16:21:38;15.40;48.80
65179;DHT22;51849;47.476;8.084;2022-09-20T16:24:05;15.40;48.60
65179;DHT22;51849;47.476;8.084;2022-09-20T16:26:31;15.30;48.30
65179;DHT22;51849;47.476;8.084;2022-09-20T16:28:59;15.20;48.40
65179;DHT22;51849;47.476;8.084;2022-09-20T16:33:57;15.10;49.10
65179;DHT22;51849;47.476;8.084;2022-09-20T16:36:28;15.10;49.30
65179;DHT22;51849;47.476;8.084;2022-09-20T16:38:54;15.00;49.50
65179;DHT22;51849;47.476;8.084;2022-09-20T16:41:21;15.00;49.80
65179;DHT22;51849;47.476;8.084;2022-09-20T16:43:50;15.00;49.30
65179;DHT22;51849;47.476;8.084;2022-09-20T16:46:17;15.00;49.90
65179;DHT22;51849;47.476;8.084;2022-09-20T16:48:47;14.90;50.20
65179;DHT22;51849;47.476;8.084;2022-09-20T16:51:18;14.90;50.70
65179;DHT22;51849;47.476;8.084;2022-09-20T16:53:46;14.90;50.50
65179;DHT22;51849;47.476;8.084;2022-09-20T16:56:16;14.90;50.40
65179;DHT22;51849;47.476;8.084;2022-09-20T16:58:42;14.70;50.90
65179;DHT22;51849;47.476;8.084;2022-09-20T17:01:08;14.70;51.20
65179;DHT22;51849;47.476;8.084;2022-09-20T17:03:35;14.70;51.70
65179;DHT22;51849;47.476;8.084;2022-09-20T17:06:02;14.70;52.50
65179;DHT22;51849;47.476;8.084;2022-09-20T17:08:30;14.60;53.00
65179;DHT22;51849;47.476;8.084;2022-09-20T17:11:03;14.50;53.80
65179;DHT22;51849;47.476;8.084;2022-09-20T17:13:40;14.50;54.00
65179;DHT22;51849;47.476;8.084;2022-09-20T17:16:12;14.50;54.40
65179;DHT22;51849;47.476;8.084;2022-09-20T17:18:44;14.50;54.70
65179;DHT22;51849;47.476;8.084;2022-09-20T17:21:13;14.50;54.60
65179;DHT22;51849;47.476;8.084;2022-09-20T17:23:41;14.50;54.50
65179;DHT22;51849;47.476;8.084;2022-09-20T17:26:13;14.50;55.90
65179;DHT22;51849;47.476;8.084;2022-09-20T17:28:42;14.50;55.80
65179;DHT22;51849;47.476;8.084;2022-09-20T17:31:11;14.40;53.10
65179;DHT22;51849;47.476;8.084;2022-09-20T17:33:38;14.30;53.90
65179;DHT22;51849;47.476;8.084;2022-09-20T17:36:05;14.20;55.80
65179;DHT22;51849;47.476;8.084;2022-09-20T17:38:32;14.10;58.10
65179;DHT22;51849;47.476;8.084;2022-09-20T17:43:28;14.10;60.10
65179;DHT22;51849;47.476;8.084;2022-09-20T17:46:02;13.90;60.80
65179;DHT22;51849;47.476;8.084;2022-09-20T17:48:33;13.90;61.00
65179;DHT22;51849;47.476;8.084;2022-09-20T17:50:58;13.80;61.20
65179;DHT22;51849;47.476;8.084;2022-09-20T17:53:26;13.70;61.90
65179;DHT22;51849;47.476;8.084;2022-09-20T17:55:55;13.60;62.30
65179;DHT22;51849;47.476;8.084;2022-09-20T17:58:21;13.50;62.60
65179;DHT22;51849;47.476;8.084;2022-09-20T18:00:48;13.40;63.30
65179;DHT22;51849;47.476;8.084;2022-09-20T18:03:14;13.30;63.60
65179;DHT22;51849;47.476;8.084;2022-09-20T18:05:41;13.20;63.60
65179;DHT22;51849;47.476;8.084;2022-09-20T18:08:06;13.10;63.70
65179;DHT22;51849;47.476;8.084;2022-09-20T18:10:33;13.00;63.70
65179;DHT22;51849;47.476;8.084;2022-09-20T18:12:58;12.90;63.70
65179;DHT22;51849;47.476;8.084;2022-09-20T18:15:25;12.80;64.10
65179;DHT22;51849;47.476;8.084;2022-09-20T18:17:52;12.80;64.30
65179;DHT22;51849;47.476;8.084;2022-09-20T18:20:18;12.80;64.50
65179;DHT22;51849;47.476;8.084;2022-09-20T18:22:47;12.80;64.50
65179;DHT22;51849;47.476;8.084;2022-09-20T18:25:13;12.80;64.40
65179;DHT22;51849;47.476;8.084;2022-09-20T18:27:39;12.70;64.50
65179;DHT22;51849;47.476;8.084;2022-09-20T18:30:05;12.70;64.20
65179;DHT22;51849;47.476;8.084;2022-09-20T18:32:32;12.70;64.10
65179;DHT22;51849;47.476;8.084;2022-09-20T18:34:58;12.70;64.10
65179;DHT22;51849;47.476;8.084;2022-09-20T18:37:23;12.70;64.00
65179;DHT22;51849;47.476;8.084;2022-09-20T18:39:49;12.70;64.00
65179;DHT22;51849;47.476;8.084;2022-09-20T18:42:15;12.60;64.30
65179;DHT22;51849;47.476;8.084;2022-09-20T18:44:41;12.60;64.80
65179;DHT22;51849;47.476;8.084;2022-09-20T18:47:08;12.50;64.70
65179;DHT22;51849;47.476;8.084;2022-09-20T18:49:34;12.60;64.90
65179;DHT22;51849;47.476;8.084;2022-09-20T18:52:00;12.60;64.90
65179;DHT22;51849;47.476;8.084;2022-09-20T18:54:27;12.60;64.50
65179;DHT22;51849;47.476;8.084;2022-09-20T18:56:57;12.50;64.40
65179;DHT22;51849;47.476;8.084;2022-09-20T18:59:24;12.50;64.70
65179;DHT22;51849;47.476;8.084;2022-09-20T19:20:58;12.40;66.10
65179;DHT22;51849;47.476;8.084;2022-09-20T19:23:32;12.30;66.80
65179;DHT22;51849;47.476;8.084;2022-09-20T19:28:46;12.20;67.50
65179;DHT22;51849;47.476;8.084;2022-09-20T19:31:21;12.20;67.80
65179;DHT22;51849;47.476;8.084;2022-09-20T19:33:51;12.10;67.90
65179;DHT22;51849;47.476;8.084;2022-09-20T19:45:13;12.00;67.00
65179;DHT22;51849;47.476;8.084;2022-09-20T19:53:00;11.80;67.50
65179;DHT22;51849;47.476;8.084;2022-09-20T19:55:32;11.90;68.60
65179;DHT22;51849;47.476;8.084;2022-09-20T19:57:59;11.90;68.10
65179;DHT22;51849;47.476;8.084;2022-09-20T20:00:26;11.80;67.70
65179;DHT22;51849;47.476;8.084;2022-09-20T20:02:52;11.80;67.60
65179;DHT22;51849;47.476;8.084;2022-09-20T20:05:19;11.70;67.60
65179;DHT22;51849;47.476;8.084;2022-09-20T20:07:52;11.60;67.90
65179;DHT22;51849;47.476;8.084;2022-09-20T20:10:28;11.60;67.90
65179;DHT22;51849;47.476;8.084;2022-09-20T20:13:09;11.60;67.70
65179;DHT22;51849;47.476;8.084;2022-09-20T20:16:05;11.50;67.40
65179;DHT22;51849;47.476;8.084;2022-09-20T20:18:53;11.50;67.30
65179;DHT22;51849;47.476;8.084;2022-09-20T20:21:31;11.50;67.40
65179;DHT22;51849;47.476;8.084;2022-09-20T20:24:21;11.40;67.70
65179;DHT22;51849;47.476;8.084;2022-09-20T20:26:57;11.20;68.50
65179;DHT22;51849;47.476;8.084;2022-09-20T20:29:22;11.00;69.20
65179;DHT22;51849;47.476;8.084;2022-09-20T20:31:48;10.90;69.70
65179;DHT22;51849;47.476;8.084;2022-09-20T20:34:14;10.80;69.90
65179;DHT22;51849;47.476;8.084;2022-09-20T20:36:43;10.80;70.10
65179;DHT22;51849;47.476;8.084;2022-09-20T20:39:09;10.90;71.70
65179;DHT22;51849;47.476;8.084;2022-09-20T20:41:36;10.90;70.60
65179;DHT22;51849;47.476;8.084;2022-09-20T20:44:02;11.00;69.90
65179;DHT22;51849;47.476;8.084;2022-09-20T20:46:29;10.90;69.80
65179;DHT22;51849;47.476;8.084;2022-09-20T20:48:56;10.80;70.00
65179;DHT22;51849;47.476;8.084;2022-09-20T20:51:22;10.70;70.30
65179;DHT22;51849;47.476;8.084;2022-09-20T20:53:49;10.70;70.40
65179;DHT22;51849;47.476;8.084;2022-09-20T20:56:27;10.60;70.50
65179;DHT22;51849;47.476;8.084;2022-09-20T20:58:54;10.60;70.60
65179;DHT22;51849;47.476;8.084;2022-09-20T21:01:26;10.50;70.80
65179;DHT22;51849;47.476;8.084;2022-09-20T21:03:53;10.40;70.90
65179;DHT22;51849;47.476;8.084;2022-09-20T21:06:21;10.40;71.10
65179;DHT22;51849;47.476;8.084;2022-09-20T21:08:50;10.40;71.40
65179;DHT22;51849;47.476;8.084;2022-09-20T21:11:21;10.30;71.40
65179;DHT22;51849;47.476;8.084;2022-09-20T21:13:50;10.10;71.90
65179;DHT22;51849;47.476;8.084;2022-09-20T21:16:27;10.10;72.00
65179;DHT22;51849;47.476;8.084;2022-09-20T21:18:54;10.00;72.00
65179;DHT22;51849;47.476;8.084;2022-09-20T21:21:21;10.00;72.10
65179;DHT22;51849;47.476;8.084;2022-09-20T21:23:53;9.90;72.30
65179;DHT22;51849;47.476;8.084;2022-09-20T21:26:21;9.90;72.40
65179;DHT22;51849;47.476;8.084;2022-09-20T21:28:49;9.90;72.20
65179;DHT22;51849;47.476;8.084;2022-09-20T21:31:20;9.90;72.10
65179;DHT22;51849;47.476;8.084;2022-09-20T21:33:46;9.80;72.20
65179;DHT22;51849;47.476;8.084;2022-09-20T21:36:14;9.80;72.30
65179;DHT22;51849;47.476;8.084;2022-09-20T21:38:41;9.80;72.30
65179;DHT22;51849;47.476;8.084;2022-09-20T21:41:09;9.70;72.50
65179;DHT22;51849;47.476;8.084;2022-09-20T21:43:36;9.70;72.50
65179;DHT22;51849;47.476;8.084;2022-09-20T21:48:40;9.70;72.60
65179;DHT22;51849;47.476;8.084;2022-09-20T21:51:07;9.60;72.80
65179;DHT22;51849;47.476;8.084;2022-09-20T21:53:35;9.60;72.90
65179;DHT22;51849;47.476;8.084;2022-09-20T21:56:04;9.50;73.00
65179;DHT22;51849;47.476;8.084;2022-09-20T21:58:31;9.50;72.90
65179;DHT22;51849;47.476;8.084;2022-09-20T22:01:08;9.40;73.00
65179;DHT22;51849;47.476;8.084;2022-09-20T22:03:40;9.30;73.10
65179;DHT22;51849;47.476;8.084;2022-09-20T22:06:28;9.30;73.40
65179;DHT22;51849;47.476;8.084;2022-09-20T22:08:58;9.30;73.40
65179;DHT22;51849;47.476;8.084;2022-09-20T22:11:35;9.20;73.40
65179;DHT22;51849;47.476;8.084;2022-09-20T22:14:06;9.20;73.50
65179;DHT22;51849;47.476;8.084;2022-09-20T22:16:33;9.10;73.60
65179;DHT22;51849;47.476;8.084;2022-09-20T22:19:01;9.00;73.90
65179;DHT22;51849;47.476;8.084;2022-09-20T22:21:27;9.00;73.90
65179;DHT22;51849;47.476;8.084;2022-09-20T22:23:55;8.90;73.80
65179;DHT22;51849;47.476;8.084;2022-09-20T22:26:27;8.90;73.90
65179;DHT22;51849;47.476;8.084;2022-09-20T22:29:02;8.90;73.90